createdAt,value
2017-04-17T00:00:41.429Z,1011.1
2017-04-17T00:01:41.405Z,1011.11
2017-04-17T00:02:41.382Z,1011.1
2017-04-17T00:03:41.361Z,1011.05
2017-04-17T00:04:41.342Z,1011.1
2017-04-17T00:05:41.324Z,1011.09
2017-04-17T00:06:41.296Z,1011.08
2017-04-17T00:07:41.284Z,1011.03
2017-04-17T00:08:41.264Z,1011.07
2017-04-17T00:09:41.237Z,1011.03
2017-04-17T00:10:41.213Z,1011.03
2017-04-17T00:11:41.193Z,1011.01
2017-04-17T00:12:41.174Z,1010.99
2017-04-17T00:13:41.161Z,1010.97
2017-04-17T00:14:41.132Z,1010.93
2017-04-17T00:15:41.108Z,1010.94
2017-04-17T00:16:41.093Z,1010.93
2017-04-17T00:17:41.071Z,1010.91
2017-04-17T00:18:41.043Z,1010.89
2017-04-17T00:19:41.020Z,1010.92
2017-04-17T00:20:41.005Z,1010.89
2017-04-17T00:21:40.985Z,1010.86
2017-04-17T00:22:40.968Z,1010.88
2017-04-17T00:23:40.938Z,1010.87
2017-04-17T00:24:40.912Z,1010.86
2017-04-17T00:25:40.895Z,1010.88
2017-04-17T00:26:40.873Z,1010.86
2017-04-17T00:27:40.849Z,1010.82
2017-04-17T00:28:40.826Z,1010.82
2017-04-17T00:29:40.806Z,1010.8
2017-04-17T00:30:40.782Z,1010.76
2017-04-17T00:31:40.762Z,1010.78
2017-04-17T00:32:40.741Z,1010.75
2017-04-17T00:33:40.722Z,1010.73
2017-04-17T00:34:40.700Z,1010.74
2017-04-17T00:35:40.682Z,1010.73
2017-04-17T00:36:40.653Z,1010.69
2017-04-17T00:37:40.631Z,1010.69
2017-04-17T00:38:40.613Z,1010.71
2017-04-17T00:39:40.591Z,1010.68
2017-04-17T00:40:40.572Z,1010.68
2017-04-17T00:41:40.549Z,1010.7
2017-04-17T00:42:40.524Z,1010.67
2017-04-17T00:43:40.504Z,1010.67
2017-04-17T00:44:40.482Z,1010.67
2017-04-17T00:45:40.463Z,1010.63
2017-04-17T00:46:40.442Z,1010.59
2017-04-17T00:47:40.417Z,1010.58
2017-04-17T00:48:40.394Z,1010.57
2017-04-17T00:49:40.380Z,1010.57
2017-04-17T00:50:40.351Z,1010.59
2017-04-17T00:51:40.330Z,1010.57
2017-04-17T00:52:40.313Z,1010.56
2017-04-17T00:53:40.287Z,1010.6
2017-04-17T00:54:40.272Z,1010.55
2017-04-17T00:55:40.252Z,1010.51
2017-04-17T00:56:40.225Z,1010.48
2017-04-17T00:57:40.198Z,1010.51
2017-04-17T00:58:40.183Z,1010.49
2017-04-17T00:59:40.163Z,1010.46
2017-04-17T01:00:40.142Z,1010.48
2017-04-17T01:01:40.112Z,1010.47
2017-04-17T01:02:40.093Z,1010.5
2017-04-17T01:03:40.072Z,1010.5
2017-04-17T01:04:40.053Z,1010.48
2017-04-17T01:05:40.028Z,1010.46
2017-04-17T01:06:40.012Z,1010.42
2017-04-17T01:07:39.992Z,1010.42
2017-04-17T01:08:39.964Z,1010.4
2017-04-17T01:09:39.944Z,1010.39
2017-04-17T01:10:39.923Z,1010.4
2017-04-17T01:11:39.906Z,1010.35
2017-04-17T01:12:39.878Z,1010.34
2017-04-17T01:13:39.857Z,1010.36
2017-04-17T01:14:39.841Z,1010.33
2017-04-17T01:15:39.813Z,1010.35
2017-04-17T01:16:39.792Z,1010.33
2017-04-17T01:17:39.773Z,1010.34
2017-04-17T01:18:39.753Z,1010.3
2017-04-17T01:19:39.730Z,1010.29
2017-04-17T01:20:39.702Z,1010.29
2017-04-17T01:21:39.681Z,1010.26
2017-04-17T01:22:39.662Z,1010.31
2017-04-17T01:23:39.640Z,1010.29
2017-04-17T01:24:39.619Z,1010.28
2017-04-17T01:25:39.594Z,1010.27
2017-04-17T01:26:39.582Z,1010.27
2017-04-17T01:27:39.550Z,1010.26
2017-04-17T01:28:39.531Z,1010.3
2017-04-17T01:29:39.510Z,1010.3
2017-04-17T01:30:39.494Z,1010.25
2017-04-17T01:31:39.521Z,1010.31
2017-04-17T01:32:39.454Z,1010.23
2017-04-17T01:33:39.473Z,1010.28
2017-04-17T01:34:39.401Z,1010.26
2017-04-17T01:35:39.382Z,1010.31
2017-04-17T01:36:39.358Z,1010.31
2017-04-17T01:37:39.339Z,1010.26
2017-04-17T01:38:39.315Z,1010.2
2017-04-17T01:39:39.292Z,1010.16
2017-04-17T01:40:39.271Z,1010.12
2017-04-17T01:41:39.296Z,1010.11
2017-04-17T01:42:39.227Z,1010.1
2017-04-17T01:43:39.263Z,1010.13
2017-04-17T01:44:39.183Z,1010.16
2017-04-17T01:45:39.161Z,1010.14
2017-04-17T01:46:39.141Z,1010.13
2017-04-17T01:47:39.215Z,1010.12
2017-04-17T01:48:39.103Z,1010.11
2017-04-17T01:49:39.085Z,1010.13
2017-04-17T01:50:39.051Z,1010.11
2017-04-17T01:51:39.382Z,1010.08
2017-04-17T01:52:39.014Z,1010.06
2017-04-17T01:53:39.037Z,1010.06
2017-04-17T01:54:38.972Z,1010.04
2017-04-17T01:55:38.951Z,1010.07
2017-04-17T01:56:38.925Z,1010.06
2017-04-17T01:57:38.901Z,1010
2017-04-17T01:58:38.879Z,1010.05
2017-04-17T01:59:38.864Z,1010.06
2017-04-17T02:00:38.836Z,1010.01
2017-04-17T02:01:38.912Z,1009.99
2017-04-17T02:02:38.801Z,1009.99
2017-04-17T02:03:38.772Z,1009.98
2017-04-17T02:04:38.754Z,1009.97
2017-04-17T02:05:38.733Z,1009.97
2017-04-17T02:06:38.706Z,1009.97
2017-04-17T02:07:38.689Z,1009.99
2017-04-17T02:08:38.663Z,1010
2017-04-17T02:09:38.645Z,1010
2017-04-17T02:10:38.623Z,1010.01
2017-04-17T02:11:38.597Z,1010.01
2017-04-17T02:12:38.588Z,1010.01
2017-04-17T02:13:38.552Z,1010.01
2017-04-17T02:14:38.530Z,1009.96
2017-04-17T02:15:38.514Z,1009.96
2017-04-17T02:16:38.489Z,1009.92
2017-04-17T02:17:38.470Z,1009.96
2017-04-17T02:18:38.453Z,1009.94
2017-04-17T02:19:38.423Z,1009.93
2017-04-17T02:20:38.402Z,1009.96
2017-04-17T02:21:38.381Z,1009.9
2017-04-17T02:22:38.357Z,1009.95
2017-04-17T02:23:38.344Z,1009.91
2017-04-17T02:24:38.329Z,1009.89
2017-04-17T02:25:38.292Z,1009.89
2017-04-17T02:26:38.272Z,1009.9
2017-04-17T02:27:38.249Z,1009.9
2017-04-17T02:28:38.233Z,1009.87
2017-04-17T02:29:38.204Z,1009.89
2017-04-17T02:30:38.185Z,1009.85
2017-04-17T02:31:38.160Z,1009.86
2017-04-17T02:32:38.138Z,1009.9
2017-04-17T02:33:38.121Z,1009.89
2017-04-17T02:34:38.099Z,1009.9
2017-04-17T02:35:38.074Z,1009.91
2017-04-17T02:36:38.053Z,1009.82
2017-04-17T02:37:38.029Z,1009.83
2017-04-17T02:38:38.009Z,1009.8
2017-04-17T02:39:37.992Z,1009.75
2017-04-17T02:40:37.962Z,1009.77
2017-04-17T02:41:37.945Z,1009.77
2017-04-17T02:42:37.921Z,1009.77
2017-04-17T02:43:37.899Z,1009.77
2017-04-17T02:44:37.876Z,1009.73
2017-04-17T02:45:37.858Z,1009.76
2017-04-17T02:46:37.833Z,1009.72
2017-04-17T02:47:37.815Z,1009.77
2017-04-17T02:48:37.790Z,1009.74
2017-04-17T02:49:37.764Z,1009.76
2017-04-17T02:50:37.749Z,1009.72
2017-04-17T02:51:37.724Z,1009.7
2017-04-17T02:52:37.704Z,1009.69
2017-04-17T02:53:37.680Z,1009.67
2017-04-17T02:54:37.663Z,1009.67
2017-04-17T02:55:37.636Z,1009.66
2017-04-17T02:56:37.613Z,1009.7
2017-04-17T02:57:37.592Z,1009.64
2017-04-17T02:58:37.572Z,1009.64
2017-04-17T02:59:37.545Z,1009.67
2017-04-17T03:00:37.524Z,1009.61
2017-04-17T03:01:37.503Z,1009.67
2017-04-17T03:02:37.484Z,1009.61
2017-04-17T03:03:37.465Z,1009.66
2017-04-17T03:04:37.437Z,1009.67
2017-04-17T03:05:37.414Z,1009.68
2017-04-17T03:06:37.393Z,1009.67
2017-04-17T03:07:37.375Z,1009.66
2017-04-17T03:08:37.351Z,1009.66
2017-04-17T03:09:37.325Z,1009.65
2017-04-17T03:10:37.304Z,1009.65
2017-04-17T03:11:37.284Z,1009.68
2017-04-17T03:12:37.257Z,1009.65
2017-04-17T03:13:37.240Z,1009.64
2017-04-17T03:14:37.215Z,1009.63
2017-04-17T03:15:37.192Z,1009.64
2017-04-17T03:16:37.173Z,1009.65
2017-04-17T03:17:37.153Z,1009.67
2017-04-17T03:18:37.129Z,1009.63
2017-04-17T03:19:37.106Z,1009.66
2017-04-17T03:20:37.084Z,1009.64
2017-04-17T03:21:37.067Z,1009.66
2017-04-17T03:22:37.044Z,1009.65
2017-04-17T03:23:37.019Z,1009.62
2017-04-17T03:24:36.994Z,1009.64
2017-04-17T03:25:36.970Z,1009.61
2017-04-17T03:26:36.952Z,1009.63
2017-04-17T03:27:36.930Z,1009.62
2017-04-17T03:28:36.906Z,1009.6
2017-04-17T03:29:36.882Z,1009.53
2017-04-17T03:30:36.865Z,1009.56
2017-04-17T03:31:36.840Z,1009.54
2017-04-17T03:32:36.820Z,1009.55
2017-04-17T03:33:36.795Z,1009.5
2017-04-17T03:34:36.773Z,1009.5
2017-04-17T03:35:36.751Z,1009.5
2017-04-17T03:36:36.736Z,1009.51
2017-04-17T03:37:36.713Z,1009.5
2017-04-17T03:38:36.684Z,1009.48
2017-04-17T03:39:36.662Z,1009.51
2017-04-17T03:40:36.646Z,1009.47
2017-04-17T03:41:36.620Z,1009.43
2017-04-17T03:42:36.601Z,1009.47
2017-04-17T03:43:36.573Z,1009.48
2017-04-17T03:44:36.551Z,1009.39
2017-04-17T03:45:36.533Z,1009.38
2017-04-17T03:46:36.513Z,1009.42
2017-04-17T03:47:36.486Z,1009.45
2017-04-17T03:48:36.465Z,1009.42
2017-04-17T03:49:36.445Z,1009.41
2017-04-17T03:50:36.423Z,1009.41
2017-04-17T03:51:36.403Z,1009.47
2017-04-17T03:52:36.380Z,1009.46
2017-04-17T03:53:36.354Z,1009.49
2017-04-17T03:54:36.339Z,1009.49
2017-04-17T03:55:36.308Z,1009.52
2017-04-17T03:56:36.288Z,1009.48
2017-04-17T03:57:36.268Z,1009.49
2017-04-17T03:58:36.258Z,1009.49
2017-04-17T03:59:36.223Z,1009.47
2017-04-17T04:00:36.201Z,1009.41
2017-04-17T04:01:36.198Z,1009.4
2017-04-17T04:02:36.162Z,1009.39
2017-04-17T04:03:36.134Z,1009.42
2017-04-17T04:04:36.132Z,1009.42
2017-04-17T04:05:36.089Z,1009.41
2017-04-17T04:06:36.081Z,1009.37
2017-04-17T04:07:36.055Z,1009.43
2017-04-17T04:08:36.037Z,1009.46
2017-04-17T04:09:36.013Z,1009.45
2017-04-17T04:10:35.992Z,1009.45
2017-04-17T04:11:35.961Z,1009.49
2017-04-17T04:12:35.945Z,1009.47
2017-04-17T04:13:35.915Z,1009.49
2017-04-17T04:14:35.890Z,1009.48
2017-04-17T04:15:35.871Z,1009.48
2017-04-17T04:16:35.851Z,1009.4
2017-04-17T04:17:35.825Z,1009.38
2017-04-17T04:18:35.805Z,1009.34
2017-04-17T04:19:35.782Z,1009.32
2017-04-17T04:20:35.764Z,1009.34
2017-04-17T04:21:35.738Z,1009.33
2017-04-17T04:22:35.743Z,1009.34
2017-04-17T04:23:35.700Z,1009.38
2017-04-17T04:24:35.673Z,1009.36
2017-04-17T04:25:35.653Z,1009.35
2017-04-17T04:26:35.628Z,1009.38
2017-04-17T04:27:35.603Z,1009.35
2017-04-17T04:28:35.635Z,1009.27
2017-04-17T04:29:35.564Z,1009.31
2017-04-17T04:30:35.562Z,1009.27
2017-04-17T04:31:35.517Z,1009.29
2017-04-17T04:32:35.501Z,1009.27
2017-04-17T04:33:35.472Z,1009.28
2017-04-17T04:34:35.505Z,1009.31
2017-04-17T04:35:35.432Z,1009.28
2017-04-17T04:36:35.410Z,1009.27
2017-04-17T04:37:35.392Z,1009.24
2017-04-17T04:38:35.424Z,1009.26
2017-04-17T04:39:35.344Z,1009.27
2017-04-17T04:40:35.372Z,1009.24
2017-04-17T04:41:35.301Z,1009.23
2017-04-17T04:42:35.343Z,1009.26
2017-04-17T04:43:35.255Z,1009.23
2017-04-17T04:44:35.304Z,1009.22
2017-04-17T04:45:35.212Z,1009.22
2017-04-17T04:46:35.242Z,1009.23
2017-04-17T04:47:35.166Z,1009.22
2017-04-17T04:48:35.149Z,1009.2
2017-04-17T04:49:35.131Z,1009.21
2017-04-17T04:50:35.112Z,1009.21
2017-04-17T04:51:35.082Z,1009.22
2017-04-17T04:52:35.163Z,1009.21
2017-04-17T04:53:35.054Z,1009.18
2017-04-17T04:54:35.061Z,1009.19
2017-04-17T04:55:34.993Z,1009.21
2017-04-17T04:56:35.025Z,1009.22
2017-04-17T04:57:34.953Z,1009.16
2017-04-17T04:58:34.929Z,1009.18
2017-04-17T04:59:34.903Z,1009.15
2017-04-17T05:00:34.886Z,1009.2
2017-04-17T05:01:34.862Z,1009.15
2017-04-17T05:02:34.842Z,1009.15
2017-04-17T05:03:34.821Z,1009.18
2017-04-17T05:04:34.798Z,1009.15
2017-04-17T05:05:34.772Z,1009.2
2017-04-17T05:06:34.761Z,1009.16
2017-04-17T05:07:34.734Z,1009.22
2017-04-17T05:08:34.710Z,1009.18
2017-04-17T05:09:34.683Z,1009.16
2017-04-17T05:10:34.662Z,1009.15
2017-04-17T05:11:34.644Z,1009.19
2017-04-17T05:12:34.622Z,1009.13
2017-04-17T05:13:34.602Z,1009.13
2017-04-17T05:14:34.581Z,1009.17
2017-04-17T05:15:34.554Z,1009.12
2017-04-17T05:16:34.531Z,1009.15
2017-04-17T05:17:34.511Z,1009.2
2017-04-17T05:18:34.488Z,1009.19
2017-04-17T05:19:34.464Z,1009.21
2017-04-17T05:20:34.455Z,1009.25
2017-04-17T05:21:34.425Z,1009.25
2017-04-17T05:22:34.401Z,1009.21
2017-04-17T05:23:34.379Z,1009.22
2017-04-17T05:24:34.355Z,1009.23
2017-04-17T05:25:34.341Z,1009.21
2017-04-17T05:26:34.313Z,1009.23
2017-04-17T05:27:34.291Z,1009.21
2017-04-17T05:28:34.274Z,1009.19
2017-04-17T05:29:34.244Z,1009.26
2017-04-17T05:30:34.227Z,1009.23
2017-04-17T05:31:34.203Z,1009.26
2017-04-17T05:32:34.182Z,1009.28
2017-04-17T05:33:34.163Z,1009.27
2017-04-17T05:34:34.139Z,1009.27
2017-04-17T05:35:34.115Z,1009.25
2017-04-17T05:36:34.106Z,1009.26
2017-04-17T05:37:34.072Z,1009.22
2017-04-17T05:38:34.052Z,1009.23
2017-04-17T05:39:34.032Z,1009.25
2017-04-17T05:40:34.004Z,1009.24
2017-04-17T05:41:33.982Z,1009.25
2017-04-17T05:42:33.963Z,1009.24
2017-04-17T05:43:33.942Z,1009.24
2017-04-17T05:44:33.920Z,1009.25
2017-04-17T05:45:33.899Z,1009.24
2017-04-17T05:46:33.879Z,1009.25
2017-04-17T05:47:33.852Z,1009.28
2017-04-17T05:48:33.834Z,1009.27
2017-04-17T05:49:33.814Z,1009.26
2017-04-17T05:50:33.786Z,1009.26
2017-04-17T05:51:33.765Z,1009.26
2017-04-17T05:52:33.744Z,1009.29
2017-04-17T05:53:33.722Z,1009.34
2017-04-17T05:54:33.701Z,1009.34
2017-04-17T05:55:33.683Z,1009.35
2017-04-17T05:56:33.662Z,1009.35
2017-04-17T05:57:33.646Z,1009.34
2017-04-17T05:58:33.610Z,1009.35
2017-04-17T05:59:33.592Z,1009.36
2017-04-17T06:00:33.566Z,1009.34
2017-04-17T06:01:33.550Z,1009.37
2017-04-17T06:02:33.521Z,1009.39
2017-04-17T06:03:33.503Z,1009.37
2017-04-17T06:04:33.484Z,1009.38
2017-04-17T06:05:33.462Z,1009.38
2017-04-17T06:06:33.439Z,1009.39
2017-04-17T06:07:33.419Z,1009.41
2017-04-17T06:08:33.395Z,1009.37
2017-04-17T06:09:33.372Z,1009.4
2017-04-17T06:10:33.352Z,1009.41
2017-04-17T06:11:33.333Z,1009.38
2017-04-17T06:12:33.313Z,1009.33
2017-04-17T06:13:33.293Z,1009.35
2017-04-17T06:14:33.271Z,1009.35
2017-04-17T06:15:33.253Z,1009.36
2017-04-17T06:16:33.233Z,1009.39
2017-04-17T06:17:33.202Z,1009.35
2017-04-17T06:18:33.182Z,1009.38
2017-04-17T06:19:33.162Z,1009.37
2017-04-17T06:20:33.147Z,1009.35
2017-04-17T06:21:33.124Z,1009.33
2017-04-17T06:22:33.099Z,1009.32
2017-04-17T06:23:33.090Z,1009.33
2017-04-17T06:24:33.061Z,1009.39
2017-04-17T06:25:33.044Z,1009.32
2017-04-17T06:26:33.016Z,1009.35
2017-04-17T06:27:32.994Z,1009.41
2017-04-17T06:28:32.972Z,1009.39
2017-04-17T06:29:32.949Z,1009.34
2017-04-17T06:30:32.929Z,1009.38
2017-04-17T06:31:32.909Z,1009.35
2017-04-17T06:32:32.887Z,1009.37
2017-04-17T06:33:32.873Z,1009.36
2017-04-17T06:34:32.850Z,1009.39
2017-04-17T06:35:32.821Z,1009.4
2017-04-17T06:36:32.803Z,1009.38
2017-04-17T06:37:32.783Z,1009.37
2017-04-17T06:38:32.762Z,1009.38
2017-04-17T06:39:32.742Z,1009.42
2017-04-17T06:40:32.722Z,1009.42
2017-04-17T06:41:32.694Z,1009.39
2017-04-17T06:42:32.672Z,1009.42
2017-04-17T06:43:32.662Z,1009.45
2017-04-17T06:44:32.633Z,1009.41
2017-04-17T06:45:32.610Z,1009.4
2017-04-17T06:46:32.591Z,1009.41
2017-04-17T06:47:32.576Z,1009.42
2017-04-17T06:48:32.546Z,1009.36
2017-04-17T06:49:32.524Z,1009.38
2017-04-17T06:50:32.503Z,1009.38
2017-04-17T06:51:32.482Z,1009.46
2017-04-17T06:52:32.463Z,1009.4
2017-04-17T06:53:32.442Z,1009.44
2017-04-17T06:54:32.422Z,1009.45
2017-04-17T06:55:32.399Z,1009.44
2017-04-17T06:56:32.381Z,1009.45
2017-04-17T06:57:32.359Z,1009.45
2017-04-17T06:58:32.336Z,1009.39
2017-04-17T06:59:32.317Z,1009.43
2017-04-17T07:00:32.296Z,1009.43
2017-04-17T07:01:32.279Z,1009.45
2017-04-17T07:02:32.254Z,1009.5
2017-04-17T07:03:32.231Z,1009.58
2017-04-17T07:04:32.211Z,1009.56
2017-04-17T07:05:32.193Z,1009.53
2017-04-17T07:06:32.173Z,1009.53
2017-04-17T07:07:32.154Z,1009.53
2017-04-17T07:08:32.132Z,1009.62
2017-04-17T07:09:32.111Z,1009.57
2017-04-17T07:10:32.089Z,1009.53
2017-04-17T07:11:32.074Z,1009.5
2017-04-17T07:12:32.053Z,1009.49
2017-04-17T07:13:32.052Z,1009.49
2017-04-17T07:14:32.011Z,1009.46
2017-04-17T07:15:31.991Z,1009.47
2017-04-17T07:16:31.970Z,1009.51
2017-04-17T07:17:31.949Z,1009.47
2017-04-17T07:18:31.943Z,1009.5
2017-04-17T07:19:31.910Z,1009.49
2017-04-17T07:20:31.895Z,1009.47
2017-04-17T07:21:31.870Z,1009.51
2017-04-17T07:22:31.847Z,1009.49
2017-04-17T07:23:31.828Z,1009.46
2017-04-17T07:24:31.804Z,1009.5
2017-04-17T07:25:31.788Z,1009.5
2017-04-17T07:26:31.768Z,1009.52
2017-04-17T07:27:31.749Z,1009.5
2017-04-17T07:28:31.723Z,1009.49
2017-04-17T07:29:31.701Z,1009.53
2017-04-17T07:30:31.682Z,1009.53
2017-04-17T07:31:31.661Z,1009.52
2017-04-17T07:32:31.639Z,1009.51
2017-04-17T07:33:31.624Z,1009.53
2017-04-17T07:34:31.602Z,1009.51
2017-04-17T07:35:31.578Z,1009.52
2017-04-17T07:36:31.561Z,1009.54
2017-04-17T07:37:31.552Z,1009.55
2017-04-17T07:38:31.523Z,1009.51
2017-04-17T07:39:31.497Z,1009.53
2017-04-17T07:40:31.479Z,1009.49
2017-04-17T07:41:31.458Z,1009.68
2017-04-17T07:42:31.441Z,1009.56
2017-04-17T07:43:31.426Z,1009.62
2017-04-17T07:44:31.399Z,1009.62
2017-04-17T07:45:31.384Z,1009.57
2017-04-17T07:46:31.368Z,1009.62
2017-04-17T07:47:31.339Z,1009.61
2017-04-17T07:48:31.320Z,1009.65
2017-04-17T07:49:31.303Z,1009.64
2017-04-17T07:50:31.284Z,1009.63
2017-04-17T07:51:31.263Z,1009.63
2017-04-17T07:52:31.243Z,1009.61
2017-04-17T07:53:31.269Z,1009.6
2017-04-17T07:54:31.200Z,1009.58
2017-04-17T07:55:31.183Z,1009.62
2017-04-17T07:56:31.163Z,1009.59
2017-04-17T07:57:31.142Z,1009.62
2017-04-17T07:58:31.123Z,1009.65
2017-04-17T07:59:31.103Z,1009.61
2017-04-17T08:00:31.084Z,1009.65
2017-04-17T08:01:31.071Z,1009.67
2017-04-17T08:02:31.045Z,1009.65
2017-04-17T08:03:31.024Z,1009.67
2017-04-17T08:04:31.003Z,1009.67
2017-04-17T08:05:30.982Z,1009.68
2017-04-17T08:06:30.963Z,1009.71
2017-04-17T08:07:30.941Z,1009.77
2017-04-17T08:08:30.921Z,1009.72
2017-04-17T08:09:30.902Z,1009.73
2017-04-17T08:10:30.883Z,1009.73
2017-04-17T08:11:30.874Z,1009.72
2017-04-17T08:12:30.843Z,1009.76
2017-04-17T08:13:30.822Z,1009.75
2017-04-17T08:14:30.805Z,1009.87
2017-04-17T08:15:30.781Z,1010
2017-04-17T08:16:30.772Z,1009.79
2017-04-17T08:17:30.741Z,1009.81
2017-04-17T08:18:30.725Z,1009.83
2017-04-17T08:19:30.714Z,1009.81
2017-04-17T08:20:30.696Z,1009.83
2017-04-17T08:21:30.667Z,1009.81
2017-04-17T08:22:30.647Z,1009.81
2017-04-17T08:23:30.635Z,1009.85
2017-04-17T08:24:30.612Z,1009.87
2017-04-17T08:25:30.593Z,1010.05
2017-04-17T08:26:30.571Z,1010.08
2017-04-17T08:27:30.552Z,1010.13
2017-04-17T08:28:30.555Z,1010.19
2017-04-17T08:29:30.519Z,1010.22
2017-04-17T08:30:30.502Z,1010.25
2017-04-17T08:31:30.494Z,1010.27
2017-04-17T08:32:30.468Z,1010.29
2017-04-17T08:33:30.462Z,1010.3
2017-04-17T08:34:30.450Z,1010.31
2017-04-17T08:35:30.433Z,1010.28
2017-04-17T08:36:30.424Z,1010.3
2017-04-17T08:37:30.412Z,1010.33
2017-04-17T08:38:30.402Z,1010.34
2017-04-17T08:39:30.392Z,1010.29
2017-04-17T08:40:30.378Z,1010.33
2017-04-17T08:41:30.380Z,1010.35
2017-04-17T08:42:30.362Z,1010.3
2017-04-17T08:43:30.353Z,1010.33
2017-04-17T08:44:30.346Z,1010.36
2017-04-17T08:45:30.335Z,1010.38
2017-04-17T08:46:30.331Z,1010.41
2017-04-17T08:47:30.322Z,1010.37
2017-04-17T08:48:30.318Z,1010.37
2017-04-17T08:49:30.306Z,1010.38
2017-04-17T08:50:30.301Z,1010.4
2017-04-17T08:51:30.307Z,1010.39
2017-04-17T08:52:30.295Z,1010.39
2017-04-17T08:53:30.283Z,1010.4
2017-04-17T08:54:30.278Z,1010.43
2017-04-17T08:55:30.273Z,1010.44
2017-04-17T08:56:30.266Z,1010.4
2017-04-17T08:57:30.263Z,1010.41
2017-04-17T08:58:30.255Z,1010.44
2017-04-17T08:59:30.251Z,1010.43
2017-04-17T09:00:30.242Z,1010.46
2017-04-17T09:01:30.245Z,1010.47
2017-04-17T09:02:30.233Z,1010.44
2017-04-17T09:03:30.233Z,1010.47
2017-04-17T09:04:30.224Z,1010.5
2017-04-17T09:05:30.224Z,1010.48
2017-04-17T09:06:30.214Z,1010.45
2017-04-17T09:07:30.204Z,1010.41
2017-04-17T09:08:30.201Z,1010.46
2017-04-17T09:09:30.206Z,1010.44
2017-04-17T09:10:30.195Z,1010.46
2017-04-17T09:11:30.195Z,1010.4
2017-04-17T09:12:30.196Z,1010.56
2017-04-17T09:13:30.183Z,1010.4
2017-04-17T09:14:30.180Z,1010.36
2017-04-17T09:15:30.170Z,1010.4
2017-04-17T09:16:30.164Z,1010.34
2017-04-17T09:17:30.163Z,1010.33
2017-04-17T09:18:30.153Z,1010.39
2017-04-17T09:19:30.143Z,1010.55
2017-04-17T09:20:30.138Z,1010.5
2017-04-17T09:21:30.127Z,1010.49
2017-04-17T09:22:30.122Z,1010.44
2017-04-17T09:23:30.113Z,1010.34
2017-04-17T09:24:30.115Z,1010.43
2017-04-17T09:25:30.100Z,1010.33
2017-04-17T09:26:30.093Z,1010.35
2017-04-17T09:27:30.079Z,1010.47
2017-04-17T09:28:30.073Z,1010.45
2017-04-17T09:29:30.064Z,1010.45
2017-04-17T09:30:30.087Z,1010.41
2017-04-17T09:31:30.044Z,1010.41
2017-04-17T09:32:30.033Z,1010.41
2017-04-17T09:33:30.034Z,1010.42
2017-04-17T09:34:30.016Z,1010.41
2017-04-17T09:35:30.012Z,1010.35
2017-04-17T09:36:30.005Z,1010.38
2017-04-17T09:37:30.004Z,1010.39
2017-04-17T09:38:29.993Z,1010.39
2017-04-17T09:39:29.994Z,1010.37
2017-04-17T09:40:29.973Z,1010.4
2017-04-17T09:41:29.977Z,1010.36
2017-04-17T09:42:29.962Z,1010.36
2017-04-17T09:43:29.952Z,1010.41
2017-04-17T09:44:29.949Z,1010.4
2017-04-17T09:45:29.943Z,1010.36
2017-04-17T09:46:29.942Z,1010.3
2017-04-17T09:47:29.929Z,1010.31
2017-04-17T09:48:29.927Z,1010.32
2017-04-17T09:49:29.914Z,1010.34
2017-04-17T09:50:29.901Z,1010.28
2017-04-17T09:51:29.895Z,1010.27
2017-04-17T09:52:29.883Z,1010.32
2017-04-17T09:53:29.884Z,1010.35
2017-04-17T09:54:29.863Z,1010.3
2017-04-17T09:55:29.853Z,1010.28
2017-04-17T09:56:29.842Z,1010.37
2017-04-17T09:57:29.882Z,1010.37
2017-04-17T09:58:29.823Z,1010.33
2017-04-17T09:59:29.808Z,1010.32
2017-04-17T10:00:29.799Z,1010.3
2017-04-17T10:01:29.781Z,1010.33
2017-04-17T10:02:29.773Z,1010.39
2017-04-17T10:03:29.762Z,1010.34
2017-04-17T10:04:29.754Z,1010.35
2017-04-17T10:05:29.755Z,1010.38
2017-04-17T10:06:29.725Z,1010.35
2017-04-17T10:07:29.706Z,1010.33
2017-04-17T10:08:29.690Z,1010.37
2017-04-17T10:09:29.673Z,1010.39
2017-04-17T10:10:29.660Z,1010.39
2017-04-17T10:11:29.653Z,1010.42
2017-04-17T10:12:29.632Z,1010.45
2017-04-17T10:13:29.618Z,1010.34
2017-04-17T10:14:29.608Z,1010.39
2017-04-17T10:15:29.602Z,1010.43
2017-04-17T10:16:29.573Z,1010.42
2017-04-17T10:17:29.563Z,1010.44
2017-04-17T10:18:29.543Z,1010.39
2017-04-17T10:19:29.529Z,1010.42
2017-04-17T10:20:29.511Z,1010.4
2017-04-17T10:21:29.502Z,1010.38
2017-04-17T10:22:29.488Z,1010.42
2017-04-17T10:23:29.484Z,1010.41
2017-04-17T10:24:29.464Z,1010.37
2017-04-17T10:25:29.462Z,1010.35
2017-04-17T10:26:29.434Z,1010.35
2017-04-17T10:27:29.421Z,1010.29
2017-04-17T10:28:29.405Z,1010.34
2017-04-17T10:29:29.398Z,1010.35
2017-04-17T10:30:29.383Z,1010.31
2017-04-17T10:31:29.373Z,1010.3
2017-04-17T10:32:29.353Z,1010.3
2017-04-17T10:33:29.340Z,1010.27
2017-04-17T10:34:29.329Z,1010.3
2017-04-17T10:35:29.317Z,1010.32
2017-04-17T10:36:29.300Z,1010.26
2017-04-17T10:37:29.282Z,1010.26
2017-04-17T10:38:29.270Z,1010.25
2017-04-17T10:39:29.257Z,1010.3
2017-04-17T10:40:29.244Z,1010.28
2017-04-17T10:41:29.232Z,1010.28
2017-04-17T10:42:29.224Z,1010.25
2017-04-17T10:43:29.204Z,1010.23
2017-04-17T10:44:29.197Z,1010.2
2017-04-17T10:45:29.172Z,1010.2
2017-04-17T10:46:29.183Z,1010.2
2017-04-17T10:47:29.153Z,1010.24
2017-04-17T10:48:29.239Z,1010.23
2017-04-17T10:49:29.122Z,1010.21
2017-04-17T10:50:29.111Z,1010.12
2017-04-17T10:51:29.092Z,1010.18
2017-04-17T10:52:29.084Z,1010.15
2017-04-17T10:53:29.065Z,1010.09
2017-04-17T10:54:29.103Z,1010.1
2017-04-17T10:55:29.044Z,1010.07
2017-04-17T10:56:29.028Z,1010.1
2017-04-17T10:57:29.016Z,1010.13
2017-04-17T10:58:29.005Z,1010.05
2017-04-17T10:59:28.989Z,1010.13
2017-04-17T11:00:29.083Z,1010.15
2017-04-17T11:01:28.968Z,1010.16
2017-04-17T11:02:29.007Z,1010.11
2017-04-17T11:03:28.943Z,1010.11
2017-04-17T11:04:28.922Z,1010.17
2017-04-17T11:05:28.914Z,1010.14
2017-04-17T11:06:28.907Z,1010.14
2017-04-17T11:07:28.883Z,1010.13
2017-04-17T11:08:28.873Z,1010.11
2017-04-17T11:09:28.862Z,1010.14
2017-04-17T11:10:28.843Z,1010.16
2017-04-17T11:11:28.828Z,1010.17
2017-04-17T11:12:28.822Z,1010.14
2017-04-17T11:13:28.803Z,1010.13
2017-04-17T11:14:28.791Z,1010.11
2017-04-17T11:15:28.786Z,1010.08
2017-04-17T11:16:28.762Z,1010.09
2017-04-17T11:17:28.756Z,1010.04
2017-04-17T11:18:28.744Z,1010.12
2017-04-17T11:19:28.724Z,1010.12
2017-04-17T11:20:28.716Z,1010.1
2017-04-17T11:21:28.700Z,1010.06
2017-04-17T11:22:28.682Z,1010.07
2017-04-17T11:23:28.669Z,1010.12
2017-04-17T11:24:28.663Z,1010.08
2017-04-17T11:25:28.642Z,1010.14
2017-04-17T11:26:28.633Z,1010.13
2017-04-17T11:27:28.615Z,1010.07
2017-04-17T11:28:28.603Z,1010.08
2017-04-17T11:29:28.590Z,1010.09
2017-04-17T11:30:28.583Z,1010.1
2017-04-17T11:31:28.564Z,1010.18
2017-04-17T11:32:28.546Z,1010.15
2017-04-17T11:33:28.535Z,1010.11
2017-04-17T11:34:28.524Z,1010.13
2017-04-17T11:35:28.511Z,1010.11
2017-04-17T11:36:28.492Z,1010.16
2017-04-17T11:37:28.483Z,1010.19
2017-04-17T11:38:28.470Z,1010.16
2017-04-17T11:39:28.450Z,1010.11
2017-04-17T11:40:28.435Z,1010.11
2017-04-17T11:41:28.423Z,1010.13
2017-04-17T11:42:28.420Z,1010.06
2017-04-17T11:43:28.400Z,1010.1
2017-04-17T11:44:28.383Z,1010.1
2017-04-17T11:45:28.365Z,1010.13
2017-04-17T11:46:28.352Z,1010.14
2017-04-17T11:47:28.343Z,1010.11
2017-04-17T11:48:28.322Z,1010.08
2017-04-17T11:49:28.312Z,1010.12
2017-04-17T11:50:28.293Z,1010.21
2017-04-17T11:51:28.286Z,1010.2
2017-04-17T11:52:28.262Z,1010.22
2017-04-17T11:53:28.252Z,1010.17
2017-04-17T11:54:28.234Z,1010.18
2017-04-17T11:55:28.221Z,1010.18
2017-04-17T11:56:28.205Z,1010.17
2017-04-17T11:57:28.194Z,1010.18
2017-04-17T11:58:28.173Z,1010.21
2017-04-17T11:59:28.165Z,1010.25
2017-04-17T12:00:28.143Z,1010.25
2017-04-17T12:01:28.131Z,1010.24
2017-04-17T12:02:28.113Z,1010.25
2017-04-17T12:03:28.093Z,1010.29
2017-04-17T12:04:28.085Z,1010.33
2017-04-17T12:05:28.063Z,1010.41
2017-04-17T12:06:28.050Z,1010.43
2017-04-17T12:07:28.034Z,1010.52
2017-04-17T12:08:28.022Z,1010.55